Time;durP1;ratioP1;P1;durP2;ratioP2;P2;SDS_P1;SDS_P2;PMS_P1;PMS_P2;Temp;Humidity;BMP_temperature;BMP_pressure;BME280_temperature;BME280_humidity;BME280_pressure;Samples;Min_cycle;Max_cycle;Signal;HPM_P1;HPM_P2
2023/06/11 00:00:20;;;;;;;24.53;22.43;;;15.90;99.90;;;;;;5060626;28;20438;-55
2023/06/11 00:02:46;;;;;;;23.70;21.80;;;15.80;99.90;;;;;;5060030;28;20185;-53
2023/06/11 00:05:12;;;;;;;25.90;23.50;;;15.70;99.90;;;;;;5060420;28;20947;-54
2023/06/11 00:07:38;;;;;;;25.50;23.50;;;15.70;99.90;;;;;;5060180;28;20203;-54
2023/06/11 00:10:07;;;;;;;24.23;22.37;;;15.60;99.90;;;;;;5060768;28;20181;-54
2023/06/11 00:12:33;;;;;;;24.33;22.33;;;15.50;99.90;;;;;;5061079;28;20224;-53
2023/06/11 00:15:02;;;;;;;25.10;22.90;;;15.50;99.90;;;;;;5059780;28;20455;-56
2023/06/11 00:17:28;;;;;;;24.33;22.23;;;15.50;99.90;;;;;;5059024;28;20427;-56
2023/06/11 00:19:54;;;;;;;24.23;22.13;;;15.40;99.90;;;;;;5059945;28;20530;-51
2023/06/11 00:22:19;;;;;;;24.60;22.60;;;15.30;99.90;;;;;;5059553;28;20496;-55
2023/06/11 00:24:46;;;;;;;24.63;22.53;;;15.30;99.90;;;;;;5042695;28;20245;-55
2023/06/11 00:27:11;;;;;;;25.33;23.10;;;15.20;99.90;;;;;;5060269;28;20189;-57
2023/06/11 00:29:37;;;;;;;24.97;22.87;;;15.20;99.90;;;;;;5059763;28;21069;-53
2023/06/11 00:32:03;;;;;;;23.57;21.67;;;15.10;99.90;;;;;;5060452;28;20196;-55
2023/06/11 00:34:28;;;;;;;26.03;23.50;;;15.10;99.90;;;;;;5060758;28;20276;-57
2023/06/11 00:36:54;;;;;;;25.83;23.50;;;15.00;99.90;;;;;;5057734;28;20502;-43
2023/06/11 00:39:19;;;;;;;25.50;23.30;;;15.00;99.90;;;;;;5059376;28;20291;-42
2023/06/11 00:41:45;;;;;;;25.13;22.87;;;15.00;99.90;;;;;;5060147;28;20196;-46
2023/06/11 00:44:17;;;;;;;25.83;23.57;;;14.90;99.90;;;;;;5059545;28;20240;-45
2023/06/11 00:46:47;;;;;;;25.20;22.93;;;14.90;99.90;;;;;;5058276;28;20209;-44
2023/06/11 00:49:14;;;;;;;25.00;22.70;;;14.80;99.90;;;;;;5059957;28;20482;-48
2023/06/11 00:51:45;;;;;;;23.83;21.73;;;14.80;99.90;;;;;;5060602;28;20466;-47
2023/06/11 00:54:12;;;;;;;23.97;22.07;;;14.80;99.90;;;;;;5059412;28;20439;-45
2023/06/11 00:56:41;;;;;;;25.60;23.20;;;14.70;99.90;;;;;;5057435;28;20450;-45
2023/06/11 00:59:07;;;;;;;26.03;23.73;;;14.70;99.90;;;;;;5040378;28;20565;-43
2023/06/11 01:01:41;;;;;;;25.60;23.30;;;14.60;99.90;;;;;;5059453;28;20656;-46
2023/06/11 01:04:13;;;;;;;25.10;22.90;;;14.60;99.90;;;;;;5059791;28;20494;-41
2023/06/11 01:06:46;;;;;;;25.27;23.10;;;14.50;99.90;;;;;;5058772;28;20877;-44
2023/06/11 01:09:20;;;;;;;25.43;23.17;;;14.50;99.90;;;;;;5059595;28;20851;-43
2023/06/11 01:11:48;;;;;;;25.73;23.30;;;14.40;99.90;;;;;;5060143;28;20988;-45
2023/06/11 01:14:16;;;;;;;24.70;22.40;;;14.40;99.90;;;;;;5058943;28;20439;-46
2023/06/11 01:16:53;;;;;;;25.60;23.40;;;14.30;99.90;;;;;;5059342;28;21076;-48
2023/06/11 01:19:37;;;;;;;24.90;22.50;;;14.30;99.90;;;;;;5059388;28;20955;-43
2023/06/11 01:22:33;;;;;;;24.60;22.50;;;14.20;99.90;;;;;;5059606;28;20439;-45
2023/06/11 01:25:11;;;;;;;21.20;19.50;;;14.20;99.90;;;;;;5054335;28;20490;-43
2023/06/11 01:28:02;;;;;;;22.53;20.53;;;14.20;99.90;;;;;;5058333;28;20526;-44
2023/06/11 01:30:30;;;;;;;23.50;21.60;;;14.40;99.90;;;;;;5058936;28;20431;-45
2023/06/11 01:32:57;;;;;;;24.13;21.83;;;14.40;99.90;;;;;;5058173;28;20783;-46
2023/06/11 01:35:23;;;;;;;23.67;21.57;;;14.40;99.90;;;;;;5058873;28;20550;-44
2023/06/11 01:37:55;;;;;;;23.20;21.30;;;14.40;99.90;;;;;;5059027;28;20608;-44
2023/06/11 01:40:24;;;;;;;21.50;19.70;;;14.30;99.90;;;;;;5059752;28;20419;-40
2023/06/11 01:42:50;;;;;;;22.63;20.63;;;14.30;99.90;;;;;;5058624;28;20450;-45
2023/06/11 01:45:19;;;;;;;21.90;20.00;;;14.30;99.90;;;;;;5058736;28;20945;-46
2023/06/11 01:47:45;;;;;;;21.47;19.70;;;14.20;99.90;;;;;;5057497;28;20800;-42
2023/06/11 01:50:14;;;;;;;20.70;19.00;;;14.10;99.90;;;;;;5059294;28;21014;-47
2023/06/11 01:52:41;;;;;;;20.37;18.57;;;14.10;99.90;;;;;;5058695;28;21235;-46
2023/06/11 01:55:08;;;;;;;20.57;18.97;;;14.10;99.90;;;;;;5057655;28;20435;-46
2023/06/11 01:57:34;;;;;;;18.07;16.67;;;14.00;99.90;;;;;;5058884;28;20486;-46
2023/06/11 02:00:00;;;;;;;19.33;17.83;;;14.00;99.90;;;;;;5057955;28;20439;-43
2023/06/11 02:02:31;;;;;;;19.10;17.30;;;13.90;99.90;;;;;;5058195;28;20441;-45
2023/06/11 02:04:57;;;;;;;21.17;19.37;;;13.90;99.90;;;;;;5059357;28;20501;-49
2023/06/11 02:07:23;;;;;;;20.70;19.00;;;13.80;99.90;;;;;;5059070;28;20577;-43
2023/06/11 02:10:19;;;;;;;20.93;19.00;;;13.80;99.90;;;;;;5057449;28;20431;-43
2023/06/11 02:12:45;;;;;;;22.57;20.57;;;13.80;99.90;;;;;;5057109;28;20482;-43
2023/06/11 02:15:11;;;;;;;22.10;20.20;;;13.70;99.90;;;;;;5059765;28;20439;-57
2023/06/11 02:17:37;;;;;;;20.93;19.13;;;13.70;99.90;;;;;;5058276;28;20450;-54
2023/06/11 02:20:05;;;;;;;21.20;19.43;;;13.60;99.90;;;;;;5057978;28;20447;-55
2023/06/11 02:22:33;;;;;;;20.90;19.20;;;13.60;99.90;;;;;;5058902;28;20238;-53
2023/06/11 02:24:58;;;;;;;21.07;19.43;;;13.60;99.90;;;;;;5058894;28;20483;-51
2023/06/11 02:27:24;;;;;;;20.80;19.23;;;13.50;99.90;;;;;;5057453;28;20490;-51
2023/06/11 02:29:49;;;;;;;21.13;19.37;;;13.40;99.90;;;;;;5058630;28;20300;-58
2023/06/11 02:32:15;;;;;;;20.67;18.87;;;13.40;99.90;;;;;;5058701;28;20181;-54
2023/06/11 02:34:41;;;;;;;22.80;20.90;;;13.30;99.90;;;;;;5058564;28;20189;-51
2023/06/11 02:37:07;;;;;;;21.17;19.57;;;13.30;99.90;;;;;;5057811;28;20407;-48
2023/06/11 02:39:33;;;;;;;24.20;22.10;;;13.30;99.90;;;;;;5040713;28;20272;-56
2023/06/11 02:41:59;;;;;;;22.93;21.03;;;13.20;99.90;;;;;;5058739;28;20506;-56
2023/06/11 02:44:24;;;;;;;24.70;22.50;;;13.20;99.90;;;;;;5055943;28;20212;-53
2023/06/11 02:46:50;;;;;;;23.93;21.87;;;13.20;99.90;;;;;;5057487;28;20192;-55
2023/06/11 02:49:16;;;;;;;26.27;23.70;;;13.10;99.90;;;;;;5030998;28;20243;-52
2023/06/11 02:51:41;;;;;;;24.77;22.67;;;13.10;99.90;;;;;;5058408;28;20185;-53
2023/06/11 02:54:07;;;;;;;25.50;23.20;;;13.10;99.90;;;;;;5058377;28;20185;-50
2023/06/11 02:56:33;;;;;;;24.40;22.20;;;13.10;99.90;;;;;;5056883;28;20272;-47
2023/06/11 02:58:59;;;;;;;23.07;21.07;;;13.00;99.90;;;;;;5057654;28;20816;-50
2023/06/11 03:01:25;;;;;;;22.90;20.90;;;13.00;99.90;;;;;;5057414;28;20635;-52
2023/06/11 03:03:50;;;;;;;23.50;21.30;;;12.90;99.90;;;;;;5058375;28;20582;-55
2023/06/11 03:06:16;;;;;;;22.47;20.37;;;12.90;99.90;;;;;;5039571;28;20556;-55
2023/06/11 03:08:41;;;;;;;22.10;20.30;;;12.80;99.90;;;;;;5058268;28;20197;-58
2023/06/11 03:11:07;;;;;;;22.50;20.70;;;12.80;99.90;;;;;;5057025;28;20544;-53
2023/06/11 03:13:33;;;;;;;22.83;20.67;;;12.80;99.90;;;;;;5057411;28;20251;-55
2023/06/11 03:15:59;;;;;;;21.67;19.77;;;12.70;99.90;;;;;;5039639;28;20454;-53
2023/06/11 03:18:24;;;;;;;21.20;19.40;;;12.70;99.90;;;;;;5058534;28;20208;-52
2023/06/11 03:20:50;;;;;;;21.53;19.73;;;12.70;99.90;;;;;;5041104;28;20188;-55
2023/06/11 03:23:16;;;;;;;20.33;18.70;;;12.60;99.90;;;;;;5061079;28;20217;-55
2023/06/11 03:25:43;;;;;;;20.60;18.90;;;12.60;99.90;;;;;;5061440;28;20189;-49
2023/06/11 03:28:09;;;;;;;20.60;18.80;;;12.60;99.90;;;;;;5060852;28;20192;-52
2023/06/11 03:30:34;;;;;;;21.40;19.50;;;12.50;99.90;;;;;;5061875;28;20439;-52
2023/06/11 03:33:00;;;;;;;19.70;18.00;;;12.50;99.90;;;;;;5059721;28;20757;-54
2023/06/11 03:35:26;;;;;;;19.03;17.53;;;12.50;99.90;;;;;;5061591;28;20242;-52
2023/06/11 03:37:51;;;;;;;19.20;17.70;;;12.50;99.90;;;;;;5042124;28;20189;-53
2023/06/11 03:40:18;;;;;;;18.60;17.10;;;12.50;99.90;;;;;;5061205;28;20197;-50
2023/06/11 03:42:43;;;;;;;19.33;17.63;;;12.40;99.90;;;;;;5060917;28;20335;-56
2023/06/11 03:45:09;;;;;;;18.70;17.27;;;12.40;99.90;;;;;;5059220;28;20840;-55
2023/06/11 03:47:35;;;;;;;19.27;17.47;;;12.40;99.90;;;;;;5060355;28;20276;-52
2023/06/11 03:50:00;;;;;;;17.93;16.63;;;12.30;99.90;;;;;;5060316;28;20220;-52
2023/06/11 03:52:26;;;;;;;17.93;16.50;;;12.30;99.90;;;;;;5061172;28;20242;-55
2023/06/11 03:54:52;;;;;;;17.53;16.20;;;12.30;99.90;;;;;;5061637;28;20227;-52
2023/06/11 03:57:18;;;;;;;17.73;16.50;;;12.40;99.90;;;;;;5060590;28;20459;-53
2023/06/11 03:59:44;;;;;;;17.30;15.90;;;12.30;99.90;;;;;;5061683;28;20587;-54
2023/06/11 04:02:10;;;;;;;17.53;16.13;;;12.30;99.90;;;;;;5061117;28;20443;-58
2023/06/11 04:04:36;;;;;;;17.23;16.00;;;12.30;99.90;;;;;;5061076;28;20956;-48
2023/06/11 04:07:02;;;;;;;18.57;16.97;;;12.30;99.90;;;;;;5059997;28;20177;-57
2023/06/11 04:09:28;;;;;;;17.60;16.30;;;12.30;99.90;;;;;;5060444;28;20778;-45
2023/06/11 04:11:53;;;;;;;17.80;16.10;;;12.30;99.90;;;;;;5060387;28;20181;-52
2023/06/11 04:14:19;;;;;;;16.93;15.63;;;12.30;99.90;;;;;;5059031;28;20197;-52
2023/06/11 04:16:45;;;;;;;16.43;15.30;;;12.40;99.90;;;;;;5061176;28;20646;-55
2023/06/11 04:19:10;;;;;;;16.83;15.50;;;12.40;99.90;;;;;;5056028;28;20193;-56
2023/06/11 04:21:36;;;;;;;17.33;16.03;;;12.40;99.90;;;;;;5060402;28;20489;-48
2023/06/11 04:24:03;;;;;;;16.70;15.23;;;12.40;99.90;;;;;;5060170;28;20232;-54
2023/06/11 04:26:28;;;;;;;17.00;15.50;;;12.50;99.90;;;;;;5059942;28;20181;-52
2023/06/11 04:28:56;;;;;;;16.83;15.53;;;12.50;99.90;;;;;;5060171;28;20485;-52
2023/06/11 04:31:26;;;;;;;15.83;14.70;;;12.60;99.90;;;;;;5059441;28;20185;-51
2023/06/11 04:33:52;;;;;;;17.30;15.90;;;12.60;99.90;;;;;;5057443;28;20442;-55
2023/06/11 04:36:24;;;;;;;16.03;14.70;;;12.70;99.90;;;;;;5060643;28;20768;-56
2023/06/11 04:38:51;;;;;;;16.07;14.97;;;12.70;99.90;;;;;;5060495;28;20794;-50
2023/06/11 04:41:17;;;;;;;16.97;15.67;;;12.80;99.90;;;;;;5059692;28;20447;-53
2023/06/11 04:43:44;;;;;;;15.70;14.50;;;12.90;99.90;;;;;;5059209;28;21000;-53
2023/06/11 04:46:11;;;;;;;16.70;15.50;;;12.90;99.90;;;;;;5059929;28;20423;-57
2023/06/11 04:48:37;;;;;;;17.30;15.90;;;13.00;99.90;;;;;;5059592;28;20412;-54
2023/06/11 04:51:04;;;;;;;15.57;14.50;;;13.00;99.90;;;;;;5059294;28;20431;-52
2023/06/11 04:53:30;;;;;;;15.70;14.50;;;13.10;99.90;;;;;;5060085;28;20949;-54
2023/06/11 04:56:02;;;;;;;15.03;13.97;;;13.10;99.90;;;;;;5059877;28;20443;-52
2023/06/11 04:58:29;;;;;;;16.00;14.90;;;13.20;99.90;;;;;;5060034;28;20435;-52
2023/06/11 05:00:58;;;;;;;14.87;13.70;;;13.20;99.90;;;;;;5057076;28;20846;-56
2023/06/11 05:03:26;;;;;;;14.90;13.90;;;13.40;99.90;;;;;;5041855;28;20460;-56
2023/06/11 05:05:53;;;;;;;16.00;14.90;;;13.40;99.90;;;;;;5027572;28;20439;-53
2023/06/11 05:08:28;;;;;;;16.63;15.43;;;13.50;99.90;;;;;;5060627;28;20409;-54
2023/06/11 05:10:55;;;;;;;15.87;14.77;;;13.50;99.90;;;;;;5059602;28;20437;-53
2023/06/11 05:13:25;;;;;;;16.97;15.77;;;13.60;99.90;;;;;;5058669;28;20522;-55
2023/06/11 05:15:58;;;;;;;17.43;15.93;;;13.60;99.90;;;;;;5058490;28;20439;-53
2023/06/11 05:18:27;;;;;;;15.30;14.20;;;13.70;99.90;;;;;;5059136;28;20443;-57
2023/06/11 05:20:53;;;;;;;16.07;14.97;;;13.80;99.90;;;;;;5059617;28;20534;-56
2023/06/11 05:23:21;;;;;;;16.27;15.13;;;13.80;99.90;;;;;;5048054;28;20852;-52
2023/06/11 05:25:47;;;;;;;16.10;14.83;;;13.90;99.90;;;;;;5042596;28;20442;-54
2023/06/11 05:28:13;;;;;;;16.40;15.20;;;14.00;99.90;;;;;;5055842;28;20439;-55
2023/06/11 05:30:45;;;;;;;15.70;14.70;;;14.10;99.90;;;;;;5036653;28;20221;-55
2023/06/11 05:33:11;;;;;;;15.60;14.50;;;14.20;99.90;;;;;;5039519;28;20554;-50
2023/06/11 05:35:38;;;;;;;14.60;13.57;;;14.20;99.90;;;;;;5028230;28;20979;-48
2023/06/11 05:38:06;;;;;;;15.53;14.33;;;14.30;99.90;;;;;;5059117;28;20977;-56
2023/06/11 05:40:32;;;;;;;16.43;15.13;;;14.40;99.90;;;;;;5057148;28;20934;-47
2023/06/11 05:42:57;;;;;;;15.53;14.50;;;14.50;99.90;;;;;;5056296;28;20443;-54
2023/06/11 05:45:25;;;;;;;14.83;13.90;;;14.60;99.90;;;;;;5057207;28;20439;-55
2023/06/11 05:47:50;;;;;;;14.93;13.93;;;14.70;99.90;;;;;;5058117;28;20640;-51
2023/06/11 05:50:16;;;;;;;15.10;14.10;;;14.80;99.90;;;;;;5058357;28;20442;-56
2023/06/11 05:52:41;;;;;;;15.00;14.00;;;14.90;99.90;;;;;;5058662;28;20193;-55
2023/06/11 05:55:07;;;;;;;15.20;14.20;;;15.00;99.90;;;;;;5056461;28;20907;-55
2023/06/11 05:57:33;;;;;;;14.00;13.07;;;15.20;99.90;;;;;;5059433;28;20189;-54
2023/06/11 05:59:58;;;;;;;14.87;13.87;;;15.30;99.90;;;;;;5058735;28;20177;-53
2023/06/11 06:02:24;;;;;;;14.87;13.70;;;15.40;99.90;;;;;;5058395;28;20193;-54
2023/06/11 06:04:50;;;;;;;15.33;14.30;;;15.50;99.90;;;;;;5058931;28;20219;-56
2023/06/11 06:07:16;;;;;;;15.40;14.40;;;15.60;99.90;;;;;;5057030;28;20296;-53
2023/06/11 06:09:41;;;;;;;15.10;14.20;;;15.70;99.90;;;;;;5059051;28;20180;-55
2023/06/11 06:12:08;;;;;;;14.97;13.97;;;15.80;99.90;;;;;;5059142;28;20435;-53
2023/06/11 06:14:34;;;;;;;14.17;13.37;;;15.90;99.90;;;;;;5059861;28;20189;-55
2023/06/11 06:16:59;;;;;;;14.70;13.80;;;16.00;99.90;;;;;;5059785;28;20953;-52
2023/06/11 06:19:25;;;;;;;15.37;14.30;;;16.00;99.90;;;;;;5058130;28;20451;-50
2023/06/11 06:21:50;;;;;;;15.27;14.27;;;16.10;99.90;;;;;;5060213;28;20184;-50
2023/06/11 06:24:16;;;;;;;14.60;13.70;;;16.30;99.90;;;;;;5059633;28;20706;-54
2023/06/11 06:26:42;;;;;;;15.17;14.17;;;16.40;99.90;;;;;;5060370;28;20261;-52
2023/06/11 06:29:08;;;;;;;15.10;14.10;;;16.50;99.90;;;;;;5059750;28;20177;-53
2023/06/11 06:31:36;;;;;;;14.43;13.53;;;16.70;99.90;;;;;;5060199;28;20427;-51
2023/06/11 06:34:02;;;;;;;15.43;14.37;;;16.70;99.70;;;;;;5056759;28;20439;-56
2023/06/11 06:36:28;;;;;;;14.60;13.70;;;16.90;99.40;;;;;;5059295;28;20478;-42
2023/06/11 06:38:54;;;;;;;14.60;13.70;;;17.00;99.10;;;;;;5058947;28;20522;-41
2023/06/11 06:41:19;;;;;;;14.57;13.67;;;17.10;98.30;;;;;;5059344;28;20236;-44
2023/06/11 06:43:45;;;;;;;14.70;13.73;;;17.30;98.20;;;;;;5058124;28;20243;-44
2023/06/11 06:46:11;;;;;;;14.83;13.83;;;17.40;97.70;;;;;;5058185;28;20256;-56
2023/06/11 06:48:36;;;;;;;14.10;13.10;;;17.50;97.50;;;;;;5041283;28;20185;-54
2023/06/11 06:51:02;;;;;;;14.90;13.80;;;17.60;97.40;;;;;;5057196;28;20181;-56
2023/06/11 06:53:28;;;;;;;14.60;13.60;;;17.70;96.50;;;;;;5054699;28;20442;-54
2023/06/11 06:55:54;;;;;;;14.23;13.23;;;17.70;96.40;;;;;;5056331;28;20189;-55
2023/06/11 06:58:20;;;;;;;15.37;14.27;;;17.90;95.60;;;;;;5060969;28;20200;-53
2023/06/11 07:00:45;;;;;;;14.37;13.47;;;18.00;95.50;;;;;;5063011;28;20443;-44
2023/06/11 07:03:15;;;;;;;13.87;12.87;;;18.10;94.60;;;;;;5063656;28;20211;-44
2023/06/11 07:05:41;;;;;;;14.47;13.57;;;18.20;94.30;;;;;;5063514;28;20181;-44
2023/06/11 07:08:08;;;;;;;14.83;13.93;;;18.30;94.70;;;;;;5063553;28;20415;-46
2023/06/11 07:10:34;;;;;;;13.87;12.97;;;18.40;93.80;;;;;;5063428;28;20411;-44
2023/06/11 07:13:00;;;;;;;13.90;13.10;;;18.60;92.90;;;;;;5063582;28;20415;-47
2023/06/11 07:15:25;;;;;;;14.50;13.60;;;18.60;91.40;;;;;;5061300;28;20216;-43
2023/06/11 07:17:51;;;;;;;15.00;13.80;;;18.80;91.70;;;;;;5059947;28;20187;-46
2023/06/11 07:20:17;;;;;;;13.80;12.90;;;18.90;92.10;;;;;;5063148;28;20243;-46
2023/06/11 07:22:43;;;;;;;13.73;12.80;;;19.00;92.20;;;;;;5062673;28;20702;-45
2023/06/11 07:25:08;;;;;;;13.80;12.90;;;19.20;91.40;;;;;;5062863;28;20256;-46
2023/06/11 07:27:34;;;;;;;14.40;13.60;;;19.30;90.40;;;;;;5063552;28;20847;-44
2023/06/11 07:30:00;;;;;;;15.20;14.20;;;19.40;90.50;;;;;;5063709;28;20231;-45
2023/06/11 07:32:26;;;;;;;14.37;13.47;;;19.50;90.10;;;;;;5063083;28;20231;-45
2023/06/11 07:34:52;;;;;;;13.97;13.17;;;19.50;87.90;;;;;;5061999;28;20529;-43
2023/06/11 07:37:17;;;;;;;13.70;12.80;;;19.60;88.40;;;;;;5061380;28;20435;-47
2023/06/11 07:39:43;;;;;;;13.70;12.80;;;19.70;88.20;;;;;;5062899;28;20710;-46
2023/06/11 07:42:10;;;;;;;14.53;13.43;;;19.90;88.20;;;;;;5063150;28;20571;-43
2023/06/11 07:44:35;;;;;;;12.90;12.20;;;20.10;88.30;;;;;;5062964;28;20208;-45
2023/06/11 07:47:01;;;;;;;13.43;12.63;;;20.30;87.20;;;;;;5063107;28;21226;-48
2023/06/11 07:49:27;;;;;;;14.13;13.27;;;20.40;87.00;;;;;;5062649;28;20238;-45
2023/06/11 07:51:52;;;;;;;14.63;13.73;;;20.50;84.20;;;;;;5062695;28;20181;-44
2023/06/11 07:54:18;;;;;;;15.00;14.10;;;20.60;82.20;;;;;;5062943;28;20189;-42
2023/06/11 07:56:46;;;;;;;14.20;13.30;;;20.80;82.50;;;;;;5062693;28;20189;-46
2023/06/11 07:59:12;;;;;;;14.00;13.20;;;20.90;80.80;;;;;;5062426;28;20663;-45
2023/06/11 08:01:38;;;;;;;14.23;13.43;;;20.90;80.10;;;;;;5061751;28;20411;-45
2023/06/11 08:04:03;;;;;;;13.70;12.70;;;21.00;80.70;;;;;;5060003;28;20474;-42
2023/06/11 08:06:29;;;;;;;14.50;13.53;;;21.10;79.10;;;;;;5062935;28;20231;-44
2023/06/11 08:08:56;;;;;;;14.77;13.87;;;21.20;78.90;;;;;;5062348;28;20181;-44
2023/06/11 08:11:22;;;;;;;14.27;13.33;;;21.30;79.90;;;;;;5062414;28;20174;-46
2023/06/11 08:13:47;;;;;;;14.00;13.20;;;21.50;79.00;;;;;;5062482;28;20439;-45
2023/06/11 08:16:15;;;;;;;14.87;13.87;;;21.70;77.70;;;;;;5062415;28;20416;-45
2023/06/11 08:18:41;;;;;;;15.83;14.63;;;21.90;76.90;;;;;;5062212;28;20230;-46
2023/06/11 08:21:06;;;;;;;14.47;13.57;;;21.90;76.70;;;;;;5062319;28;20423;-43
2023/06/11 08:23:35;;;;;;;13.90;13.10;;;22.00;78.30;;;;;;5061809;28;20660;-43
2023/06/11 08:26:01;;;;;;;14.50;13.50;;;22.20;76.40;;;;;;5062161;28;21085;-46
2023/06/11 08:28:27;;;;;;;14.33;13.43;;;22.40;76.10;;;;;;5062147;28;20446;-41
2023/06/11 08:30:54;;;;;;;14.40;13.50;;;22.60;76.10;;;;;;5062101;28;20182;-45
2023/06/11 08:33:19;;;;;;;15.00;14.17;;;22.80;75.20;;;;;;5057967;28;21313;-46
2023/06/11 08:35:45;;;;;;;13.17;12.37;;;23.00;73.80;;;;;;5059808;28;20435;-44
2023/06/11 08:38:11;;;;;;;14.20;13.33;;;23.20;72.70;;;;;;5059734;28;20216;-48
2023/06/11 08:40:40;;;;;;;15.10;14.20;;;23.40;72.10;;;;;;5043031;28;20193;-44
2023/06/11 08:43:10;;;;;;;13.90;13.00;;;23.50;72.60;;;;;;5061074;28;20411;-48
2023/06/11 08:45:39;;;;;;;15.80;14.73;;;23.60;70.30;;;;;;5061091;28;20439;-45
2023/06/11 08:48:08;;;;;;;15.20;14.20;;;23.80;70.10;;;;;;5060826;28;20415;-47
2023/06/11 08:50:35;;;;;;;14.40;13.50;;;24.00;69.30;;;;;;5060702;28;20905;-44
2023/06/11 08:53:02;;;;;;;14.17;13.30;;;24.20;68.20;;;;;;5060914;28;20498;-47
2023/06/11 08:55:29;;;;;;;15.33;14.30;;;24.50;69.60;;;;;;5061162;28;20517;-47
2023/06/11 08:57:55;;;;;;;13.80;12.97;;;24.80;69.20;;;;;;5060572;28;20775;-43
2023/06/11 09:00:21;;;;;;;14.20;13.40;;;25.00;67.60;;;;;;5060647;28;20423;-46
2023/06/11 09:02:47;;;;;;;14.10;13.30;;;25.20;64.60;;;;;;5059663;28;20183;-45
2023/06/11 09:05:12;;;;;;;13.67;12.93;;;25.50;63.00;;;;;;5060537;28;20209;-44
2023/06/11 09:07:50;;;;;;;12.83;12.13;;;25.70;58.40;;;;;;5060233;28;20414;-46
2023/06/11 09:10:17;;;;;;;15.10;13.90;;;25.70;59.60;;;;;;5060136;28;20685;-44
2023/06/11 09:12:43;;;;;;;13.83;13.03;;;26.00;59.40;;;;;;5060628;28;20430;-47
2023/06/11 09:15:09;;;;;;;13.60;12.90;;;26.30;57.70;;;;;;5060622;28;20411;-42
2023/06/11 09:17:37;;;;;;;14.90;14.00;;;26.30;56.40;;;;;;5060240;28;20436;-46
2023/06/11 09:20:05;;;;;;;14.60;13.70;;;26.50;56.80;;;;;;5059939;28;20411;-44
2023/06/11 09:22:30;;;;;;;14.60;13.80;;;26.90;54.00;;;;;;5060010;28;20430;-46
2023/06/11 09:24:56;;;;;;;14.10;13.30;;;27.40;53.60;;;;;;5060022;28;20475;-44
2023/06/11 09:27:22;;;;;;;14.60;13.80;;;27.80;51.40;;;;;;5060363;28;20177;-49
2023/06/11 09:29:48;;;;;;;13.93;13.23;;;28.00;45.80;;;;;;5042537;28;20579;-46
2023/06/11 09:32:14;;;;;;;13.70;13.00;;;28.50;44.40;;;;;;5041474;28;20571;-46
2023/06/11 09:34:41;;;;;;;13.70;13.00;;;29.10;40.60;;;;;;5060190;28;20192;-43
2023/06/11 09:37:11;;;;;;;14.50;13.63;;;29.30;38.00;;;;;;5059459;28;20750;-44
2023/06/11 09:39:36;;;;;;;14.40;13.60;;;29.40;36.80;;;;;;5059719;28;20434;-47
2023/06/11 09:42:02;;;;;;;13.90;13.20;;;29.90;35.70;;;;;;5059822;28;20884;-49
2023/06/11 09:44:31;;;;;;;13.83;13.03;;;30.00;34.80;;;;;;5059986;28;20211;-45
2023/06/11 09:46:58;;;;;;;14.93;14.03;;;30.40;34.50;;;;;;5060027;28;20182;-48
2023/06/11 09:49:24;;;;;;;13.87;13.07;;;31.00;33.00;;;;;;5059763;28;20467;-47
2023/06/11 09:51:52;;;;;;;14.50;13.80;;;31.40;31.00;;;;;;5059925;28;20831;-48
2023/06/11 09:54:20;;;;;;;15.17;14.27;;;31.70;31.10;;;;;;5060059;28;20760;-44
2023/06/11 09:56:47;;;;;;;14.93;14.13;;;32.10;30.30;;;;;;5059620;28;20415;-50
2023/06/11 09:59:15;;;;;;;14.00;13.20;;;32.70;29.60;;;;;;5059762;28;20411;-47
2023/06/11 10:01:43;;;;;;;15.73;14.93;;;33.10;28.00;;;;;;5058613;28;20745;-49
2023/06/11 10:04:09;;;;;;;15.33;14.40;;;33.40;26.70;;;;;;5058425;28;20466;-44
2023/06/11 10:06:45;;;;;;;14.70;13.90;;;33.60;27.60;;;;;;5058912;28;20520;-48
2023/06/11 10:09:14;;;;;;;15.37;14.47;;;33.90;27.10;;;;;;5059101;28;20419;-47
2023/06/11 10:11:40;;;;;;;14.60;13.90;;;34.20;27.20;;;;;;5048910;28;20433;-45
2023/06/11 10:14:29;;;;;;;15.03;14.23;;;34.20;26.40;;;;;;5059125;28;20445;-49
2023/06/11 10:16:56;;;;;;;13.20;12.50;;;34.30;26.30;;;;;;5058098;28;20414;-45
2023/06/11 10:19:22;;;;;;;14.87;14.17;;;34.50;25.80;;;;;;5059180;28;20483;-45
2023/06/11 10:21:51;;;;;;;14.43;13.67;;;35.00;25.10;;;;;;5059584;28;20431;-54
2023/06/11 10:24:44;;;;;;;14.50;13.80;;;35.10;23.60;;;;;;5060051;28;21623;-52
2023/06/11 10:27:13;;;;;;;14.97;14.23;;;34.90;22.50;;;;;;5057937;28;20434;-52
2023/06/11 10:29:46;;;;;;;14.10;13.40;;;34.80;21.70;;;;;;5060509;28;20403;-54
2023/06/11 10:32:24;;;;;;;13.50;12.80;;;34.50;22.80;;;;;;5063667;28;20442;-55
2023/06/11 10:34:54;;;;;;;12.37;11.77;;;34.20;23.30;;;;;;5062591;28;20854;-51
2023/06/11 10:37:42;;;;;;;12.90;12.20;;;34.30;22.20;;;;;;5064108;28;20422;-54
2023/06/11 10:40:08;;;;;;;13.27;12.67;;;34.50;22.50;;;;;;5045925;28;20427;-55
2023/06/11 10:42:37;;;;;;;11.03;10.53;;;34.60;22.00;;;;;;5062736;28;20438;-54
2023/06/11 10:45:20;;;;;;;11.93;11.33;;;34.90;21.40;;;;;;5064087;28;20504;-54
2023/06/11 10:47:49;;;;;;;14.17;13.47;;;35.50;21.10;;;;;;5063166;28;20441;-50
2023/06/11 10:50:23;;;;;;;13.80;13.10;;;35.50;20.70;;;;;;5063759;28;20580;-53
2023/06/11 10:52:55;;;;;;;14.37;13.57;;;35.80;20.90;;;;;;5063014;28;20553;-52
2023/06/11 10:55:22;;;;;;;15.17;14.37;;;36.30;21.30;;;;;;5062959;28;20770;-55
2023/06/11 10:57:52;;;;;;;14.40;13.60;;;36.80;20.10;;;;;;5062314;28;20445;-53
2023/06/11 11:00:19;;;;;;;14.53;13.83;;;36.00;19.90;;;;;;5063079;28;20445;-54
2023/06/11 11:02:46;;;;;;;12.93;12.33;;;35.30;20.30;;;;;;5061834;28;20442;-55
2023/06/11 11:05:12;;;;;;;14.93;14.03;;;35.50;20.90;;;;;;5063651;28;20465;-54
2023/06/11 11:07:38;;;;;;;13.60;12.70;;;35.50;20.60;;;;;;5062743;28;20427;-54
2023/06/11 11:10:06;;;;;;;15.73;14.83;;;35.10;20.60;;;;;;5063606;28;20421;-51
2023/06/11 11:12:39;;;;;;;14.53;13.70;;;34.90;21.50;;;;;;5063036;28;20729;-52
2023/06/11 11:15:06;;;;;;;12.90;12.20;;;34.90;21.10;;;;;;5063883;28;20435;-52
2023/06/11 11:17:34;;;;;;;13.40;12.70;;;34.90;21.30;;;;;;5062168;28;20439;-50
2023/06/11 11:20:00;;;;;;;13.43;12.73;;;34.60;22.10;;;;;;5044111;28;20427;-52
2023/06/11 11:22:29;;;;;;;13.23;12.53;;;34.10;22.40;;;;;;5063206;28;20433;-48
2023/06/11 11:25:02;;;;;;;13.40;12.70;;;33.90;22.30;;;;;;5062106;28;20235;-54
2023/06/11 11:27:28;;;;;;;13.43;12.73;;;34.30;21.90;;;;;;5061362;28;20414;-47
2023/06/11 11:29:57;;;;;;;12.10;11.40;;;35.00;21.70;;;;;;5043611;28;20423;-47
2023/06/11 11:32:29;;;;;;;15.00;14.20;;;35.50;21.10;;;;;;5061477;28;20246;-45
2023/06/11 11:34:56;;;;;;;15.13;14.27;;;36.20;20.70;;;;;;5061765;28;20502;-42
2023/06/11 11:37:22;;;;;;;14.83;14.10;;;36.10;20.50;;;;;;5060950;28;20438;-45
2023/06/11 11:39:48;;;;;;;15.23;14.43;;;35.40;20.80;;;;;;5061701;28;20857;-42
2023/06/11 11:42:14;;;;;;;13.20;12.50;;;34.90;21.10;;;;;;5059876;28;20192;-42
2023/06/11 11:44:43;;;;;;;14.53;13.73;;;34.30;21.80;;;;;;5061564;28;20455;-42
2023/06/11 11:47:10;;;;;;;12.73;12.00;;;33.80;22.50;;;;;;5062072;28;20415;-42
2023/06/11 11:49:36;;;;;;;14.60;13.80;;;33.30;22.90;;;;;;5061918;28;20549;-45
2023/06/11 11:52:03;;;;;;;13.93;13.13;;;32.90;23.70;;;;;;5061441;28;20815;-41
2023/06/11 11:54:29;;;;;;;14.90;14.10;;;32.60;23.10;;;;;;5061984;28;20204;-46
2023/06/11 11:57:07;;;;;;;14.27;13.57;;;32.10;23.30;;;;;;5060790;28;20439;-43
2023/06/11 11:59:37;;;;;;;14.20;13.40;;;32.20;23.70;;;;;;5061344;28;20184;-45
2023/06/11 12:02:03;;;;;;;13.97;13.07;;;32.40;23.60;;;;;;5043707;28;20424;-42
2023/06/11 12:04:37;;;;;;;13.17;12.47;;;32.40;23.40;;;;;;5060934;28;20460;-44
2023/06/11 12:07:06;;;;;;;15.50;14.60;;;32.20;23.80;;;;;;5061002;28;20418;-42
2023/06/11 12:09:33;;;;;;;14.20;13.40;;;32.20;23.10;;;;;;5060558;28;20827;-44
2023/06/11 12:11:59;;;;;;;15.07;14.27;;;32.20;22.90;;;;;;5060869;28;20906;-43
2023/06/11 12:14:25;;;;;;;14.40;13.50;;;32.30;23.90;;;;;;5062072;28;20411;-42
2023/06/11 12:16:50;;;;;;;13.77;13.03;;;32.40;23.20;;;;;;5060979;28;20191;-48
2023/06/11 12:19:18;;;;;;;13.80;13.10;;;32.50;23.30;;;;;;5060142;28;20181;-48
2023/06/11 12:21:44;;;;;;;15.33;14.43;;;32.70;22.90;;;;;;5060638;28;20185;-41
2023/06/11 12:24:12;;;;;;;14.70;14.00;;;32.90;23.00;;;;;;5022169;28;1105854;-42
2023/06/11 12:26:38;;;;;;;13.53;12.80;;;33.20;21.70;;;;;;5060754;28;20204;-46